Santa Rosa Beach, Florida
Current Conditions -  °F | °C
As of 5:53 AM on Friday 21 Nov 2014 (Local Time) from KDTS Reporting Station
Clear Clear  
Wind Chill: 47°   Ceiling: Unl
Heat Index: 49°   Visibility: 10mi
Dew Point: 46°   Wind: 6mph
Humidity: 90%   Direction: 50°NE
Pressure: 30.3"   Gusts: NA
Location:  30.4°N, 86.23°W
Report Text: KDTS 211153Z AUTO 05005KT 10SM CLR 09/08 A3030 RMK AO2 SLP258 T00940078 10100 20072 52008 TSNO
Loading
Personal Weather Stations






























Interactive Weather Map New forecast layout! Learn more

10-Day Weather Forecast

Advertisements
Track Severe Weather on mobile